sensor_id;sensor_type;location;lat;lon;timestamp;P1;durP1;ratioP1;P2;durP2;ratioP2
42704;SDS011;28342;42.594;23.414;2024-03-17T00:00:21;19.67;;;11.90;;
42704;SDS011;28342;42.594;23.414;2024-03-17T00:02:46;24.85;;;12.65;;
42704;SDS011;28342;42.594;23.414;2024-03-17T00:05:12;23.60;;;12.18;;
42704;SDS011;28342;42.594;23.414;2024-03-17T00:07:38;25.65;;;13.80;;
42704;SDS011;28342;42.594;23.414;2024-03-17T00:10:04;22.05;;;12.20;;
42704;SDS011;28342;42.594;23.414;2024-03-17T00:12:32;22.75;;;12.40;;
42704;SDS011;28342;42.594;23.414;2024-03-17T00:14:58;23.58;;;12.70;;
42704;SDS011;28342;42.594;23.414;2024-03-17T00:17:23;23.35;;;13.07;;
42704;SDS011;28342;42.594;23.414;2024-03-17T00:19:48;25.67;;;12.93;;
42704;SDS011;28342;42.594;23.414;2024-03-17T00:22:14;21.90;;;12.38;;
42704;SDS011;28342;42.594;23.414;2024-03-17T00:24:40;28.30;;;13.20;;
42704;SDS011;28342;42.594;23.414;2024-03-17T00:27:07;28.25;;;13.70;;
42704;SDS011;28342;42.594;23.414;2024-03-17T00:29:33;35.55;;;15.32;;
42704;SDS011;28342;42.594;23.414;2024-03-17T00:31:58;60.53;;;22.33;;
42704;SDS011;28342;42.594;23.414;2024-03-17T00:34:24;48.20;;;18.30;;
42704;SDS011;28342;42.594;23.414;2024-03-17T00:36:49;39.95;;;17.10;;
42704;SDS011;28342;42.594;23.414;2024-03-17T00:39:16;28.08;;;12.82;;
42704;SDS011;28342;42.594;23.414;2024-03-17T00:41:42;21.80;;;11.68;;
42704;SDS011;28342;42.594;23.414;2024-03-17T00:44:07;21.13;;;11.65;;
42704;SDS011;28342;42.594;23.414;2024-03-17T00:46:33;20.63;;;11.40;;
42704;SDS011;28342;42.594;23.414;2024-03-17T00:48:58;19.95;;;10.45;;
42704;SDS011;28342;42.594;23.414;2024-03-17T00:51:27;16.00;;;9.02;;
42704;SDS011;28342;42.594;23.414;2024-03-17T00:53:53;16.10;;;9.43;;
42704;SDS011;28342;42.594;23.414;2024-03-17T00:56:18;16.98;;;9.88;;
42704;SDS011;28342;42.594;23.414;2024-03-17T00:58:44;19.15;;;10.18;;
42704;SDS011;28342;42.594;23.414;2024-03-17T01:01:10;19.02;;;10.52;;
42704;SDS011;28342;42.594;23.414;2024-03-17T01:03:36;19.38;;;9.50;;
42704;SDS011;28342;42.594;23.414;2024-03-17T01:06:04;21.17;;;9.93;;
42704;SDS011;28342;42.594;23.414;2024-03-17T01:08:30;18.48;;;9.07;;
42704;SDS011;28342;42.594;23.414;2024-03-17T01:10:56;18.63;;;9.18;;
42704;SDS011;28342;42.594;23.414;2024-03-17T01:13:21;22.08;;;9.88;;
42704;SDS011;28342;42.594;23.414;2024-03-17T01:15:50;16.85;;;9.55;;
42704;SDS011;28342;42.594;23.414;2024-03-17T01:18:16;17.23;;;9.50;;
42704;SDS011;28342;42.594;23.414;2024-03-17T01:20:42;18.88;;;9.65;;
42704;SDS011;28342;42.594;23.414;2024-03-17T01:23:07;18.92;;;9.73;;
42704;SDS011;28342;42.594;23.414;2024-03-17T01:25:33;16.80;;;9.65;;
42704;SDS011;28342;42.594;23.414;2024-03-17T01:28:02;82.55;;;29.33;;
42704;SDS011;28342;42.594;23.414;2024-03-17T01:30:31;55.97;;;21.35;;
42704;SDS011;28342;42.594;23.414;2024-03-17T01:32:57;31.27;;;13.20;;
42704;SDS011;28342;42.594;23.414;2024-03-17T01:35:24;18.27;;;10.55;;
42704;SDS011;28342;42.594;23.414;2024-03-17T01:37:50;24.80;;;11.27;;
42704;SDS011;28342;42.594;23.414;2024-03-17T01:40:15;18.98;;;10.40;;
42704;SDS011;28342;42.594;23.414;2024-03-17T01:42:41;20.02;;;10.38;;
42704;SDS011;28342;42.594;23.414;2024-03-17T01:45:18;19.15;;;9.60;;
42704;SDS011;28342;42.594;23.414;2024-03-17T01:47:54;17.80;;;10.48;;
42704;SDS011;28342;42.594;23.414;2024-03-17T01:50:28;27.15;;;11.18;;
42704;SDS011;28342;42.594;23.414;2024-03-17T01:53:03;20.17;;;11.52;;
42704;SDS011;28342;42.594;23.414;2024-03-17T01:55:36;21.02;;;11.57;;
42704;SDS011;28342;42.594;23.414;2024-03-17T01:58:04;20.25;;;10.38;;
42704;SDS011;28342;42.594;23.414;2024-03-17T02:00:33;17.35;;;10.90;;
42704;SDS011;28342;42.594;23.414;2024-03-17T02:03:01;24.40;;;11.32;;
42704;SDS011;28342;42.594;23.414;2024-03-17T02:05:29;24.58;;;12.23;;
42704;SDS011;28342;42.594;23.414;2024-03-17T02:07:55;19.05;;;11.20;;
42704;SDS011;28342;42.594;23.414;2024-03-17T02:10:20;21.77;;;10.73;;
42704;SDS011;28342;42.594;23.414;2024-03-17T02:12:46;21.30;;;11.57;;
42704;SDS011;28342;42.594;23.414;2024-03-17T02:15:13;23.15;;;12.05;;
42704;SDS011;28342;42.594;23.414;2024-03-17T02:17:39;22.75;;;11.85;;
42704;SDS011;28342;42.594;23.414;2024-03-17T02:20:05;19.20;;;10.95;;
42704;SDS011;28342;42.594;23.414;2024-03-17T02:22:36;22.25;;;11.20;;
42704;SDS011;28342;42.594;23.414;2024-03-17T02:25:02;24.13;;;12.07;;
42704;SDS011;28342;42.594;23.414;2024-03-17T02:27:28;18.98;;;11.05;;
42704;SDS011;28342;42.594;23.414;2024-03-17T02:29:54;22.77;;;12.43;;
42704;SDS011;28342;42.594;23.414;2024-03-17T02:32:19;23.60;;;12.10;;
42704;SDS011;28342;42.594;23.414;2024-03-17T02:34:47;25.27;;;11.25;;
42704;SDS011;28342;42.594;23.414;2024-03-17T02:37:13;20.70;;;11.07;;
42704;SDS011;28342;42.594;23.414;2024-03-17T02:39:38;24.23;;;11.77;;
42704;SDS011;28342;42.594;23.414;2024-03-17T02:42:04;19.25;;;11.25;;
42704;SDS011;28342;42.594;23.414;2024-03-17T02:44:34;23.25;;;11.30;;
42704;SDS011;28342;42.594;23.414;2024-03-17T02:47:01;25.45;;;12.50;;
42704;SDS011;28342;42.594;23.414;2024-03-17T02:49:29;20.48;;;11.98;;
42704;SDS011;28342;42.594;23.414;2024-03-17T02:52:01;22.80;;;12.35;;
42704;SDS011;28342;42.594;23.414;2024-03-17T02:54:28;24.33;;;13.27;;
42704;SDS011;28342;42.594;23.414;2024-03-17T02:56:53;24.30;;;12.38;;
42704;SDS011;28342;42.594;23.414;2024-03-17T02:59:18;24.20;;;11.45;;
42704;SDS011;28342;42.594;23.414;2024-03-17T03:01:44;18.65;;;10.70;;
42704;SDS011;28342;42.594;23.414;2024-03-17T03:04:10;19.90;;;11.10;;
42704;SDS011;28342;42.594;23.414;2024-03-17T03:06:36;20.60;;;11.88;;
42704;SDS011;28342;42.594;23.414;2024-03-17T03:09:03;23.98;;;12.63;;
42704;SDS011;28342;42.594;23.414;2024-03-17T03:11:30;22.05;;;12.20;;
42704;SDS011;28342;42.594;23.414;2024-03-17T03:13:56;20.23;;;11.73;;
42704;SDS011;28342;42.594;23.414;2024-03-17T03:16:21;27.35;;;12.77;;
42704;SDS011;28342;42.594;23.414;2024-03-17T03:18:46;23.48;;;12.95;;
42704;SDS011;28342;42.594;23.414;2024-03-17T03:21:12;22.75;;;12.20;;
42704;SDS011;28342;42.594;23.414;2024-03-17T03:23:37;21.67;;;12.63;;
42704;SDS011;28342;42.594;23.414;2024-03-17T03:26:03;21.95;;;12.05;;
42704;SDS011;28342;42.594;23.414;2024-03-17T03:28:32;23.70;;;11.77;;
42704;SDS011;28342;42.594;23.414;2024-03-17T03:31:01;18.48;;;11.23;;
42704;SDS011;28342;42.594;23.414;2024-03-17T03:33:27;22.77;;;12.40;;
42704;SDS011;28342;42.594;23.414;2024-03-17T03:35:53;29.52;;;12.55;;
42704;SDS011;28342;42.594;23.414;2024-03-17T03:38:20;20.55;;;11.77;;
42704;SDS011;28342;42.594;23.414;2024-03-17T03:40:47;22.42;;;11.73;;
42704;SDS011;28342;42.594;23.414;2024-03-17T03:43:13;21.77;;;12.10;;
42704;SDS011;28342;42.594;23.414;2024-03-17T03:45:39;23.73;;;13.27;;
42704;SDS011;28342;42.594;23.414;2024-03-17T03:48:05;22.55;;;12.82;;
42704;SDS011;28342;42.594;23.414;2024-03-17T03:50:31;20.63;;;10.88;;
42704;SDS011;28342;42.594;23.414;2024-03-17T03:52:57;21.88;;;12.82;;
42704;SDS011;28342;42.594;23.414;2024-03-17T03:55:22;20.02;;;12.10;;
42704;SDS011;28342;42.594;23.414;2024-03-17T03:57:49;20.95;;;11.73;;
42704;SDS011;28342;42.594;23.414;2024-03-17T04:00:17;20.90;;;11.75;;
42704;SDS011;28342;42.594;23.414;2024-03-17T04:02:49;22.65;;;12.23;;
42704;SDS011;28342;42.594;23.414;2024-03-17T04:05:16;20.42;;;12.52;;
42704;SDS011;28342;42.594;23.414;2024-03-17T04:07:42;23.25;;;12.48;;
42704;SDS011;28342;42.594;23.414;2024-03-17T04:10:08;23.67;;;11.45;;
42704;SDS011;28342;42.594;23.414;2024-03-17T04:12:34;22.55;;;12.43;;
42704;SDS011;28342;42.594;23.414;2024-03-17T04:15:00;21.42;;;12.88;;
42704;SDS011;28342;42.594;23.414;2024-03-17T04:17:26;22.85;;;11.68;;
42704;SDS011;28342;42.594;23.414;2024-03-17T04:19:52;22.83;;;11.73;;
42704;SDS011;28342;42.594;23.414;2024-03-17T04:22:19;26.90;;;12.63;;
42704;SDS011;28342;42.594;23.414;2024-03-17T04:24:47;23.38;;;12.25;;
42704;SDS011;28342;42.594;23.414;2024-03-17T04:27:13;27.15;;;13.48;;
42704;SDS011;28342;42.594;23.414;2024-03-17T04:29:39;20.05;;;11.88;;
42704;SDS011;28342;42.594;23.414;2024-03-17T04:32:05;22.42;;;11.70;;
42704;SDS011;28342;42.594;23.414;2024-03-17T04:34:31;26.70;;;12.43;;
42704;SDS011;28342;42.594;23.414;2024-03-17T04:36:57;22.85;;;11.75;;
42704;SDS011;28342;42.594;23.414;2024-03-17T04:39:23;22.65;;;11.80;;
42704;SDS011;28342;42.594;23.414;2024-03-17T04:41:50;22.88;;;12.35;;
42704;SDS011;28342;42.594;23.414;2024-03-17T04:44:15;20.45;;;11.55;;
42704;SDS011;28342;42.594;23.414;2024-03-17T04:46:42;25.63;;;11.77;;
42704;SDS011;28342;42.594;23.414;2024-03-17T04:49:07;25.90;;;13.50;;
42704;SDS011;28342;42.594;23.414;2024-03-17T04:51:33;24.00;;;12.32;;
42704;SDS011;28342;42.594;23.414;2024-03-17T04:53:59;21.83;;;12.50;;
42704;SDS011;28342;42.594;23.414;2024-03-17T04:56:25;20.13;;;11.85;;
42704;SDS011;28342;42.594;23.414;2024-03-17T04:58:50;20.58;;;11.57;;
42704;SDS011;28342;42.594;23.414;2024-03-17T05:01:16;20.10;;;12.23;;
42704;SDS011;28342;42.594;23.414;2024-03-17T05:03:41;21.40;;;12.25;;
42704;SDS011;28342;42.594;23.414;2024-03-17T05:06:07;25.80;;;11.25;;
42704;SDS011;28342;42.594;23.414;2024-03-17T05:08:33;21.50;;;12.45;;
42704;SDS011;28342;42.594;23.414;2024-03-17T05:11:03;26.30;;;12.52;;
42704;SDS011;28342;42.594;23.414;2024-03-17T05:13:30;25.70;;;13.57;;
42704;SDS011;28342;42.594;23.414;2024-03-17T05:15:59;37.72;;;18.63;;
42704;SDS011;28342;42.594;23.414;2024-03-17T05:18:25;83.65;;;33.65;;
42704;SDS011;28342;42.594;23.414;2024-03-17T05:20:57;62.10;;;24.85;;
42704;SDS011;28342;42.594;23.414;2024-03-17T05:23:28;26.05;;;14.27;;
42704;SDS011;28342;42.594;23.414;2024-03-17T05:25:55;28.10;;;15.35;;
42704;SDS011;28342;42.594;23.414;2024-03-17T05:28:22;25.40;;;13.70;;
42704;SDS011;28342;42.594;23.414;2024-03-17T05:30:49;30.27;;;14.57;;
42704;SDS011;28342;42.594;23.414;2024-03-17T05:33:16;27.95;;;14.63;;
42704;SDS011;28342;42.594;23.414;2024-03-17T05:35:48;28.55;;;13.93;;
42704;SDS011;28342;42.594;23.414;2024-03-17T05:38:14;120.40;;;54.47;;
42704;SDS011;28342;42.594;23.414;2024-03-17T05:40:39;27.42;;;15.25;;
42704;SDS011;28342;42.594;23.414;2024-03-17T05:43:06;31.52;;;14.05;;
42704;SDS011;28342;42.594;23.414;2024-03-17T05:45:32;24.92;;;14.60;;
42704;SDS011;28342;42.594;23.414;2024-03-17T05:47:57;25.48;;;14.57;;
42704;SDS011;28342;42.594;23.414;2024-03-17T05:50:23;27.23;;;13.32;;
42704;SDS011;28342;42.594;23.414;2024-03-17T05:52:48;24.02;;;12.85;;
42704;SDS011;28342;42.594;23.414;2024-03-17T05:55:14;25.27;;;13.63;;
42704;SDS011;28342;42.594;23.414;2024-03-17T05:57:39;25.90;;;14.40;;
42704;SDS011;28342;42.594;23.414;2024-03-17T06:00:06;23.60;;;12.77;;
42704;SDS011;28342;42.594;23.414;2024-03-17T06:02:32;26.42;;;13.52;;
42704;SDS011;28342;42.594;23.414;2024-03-17T06:04:58;24.25;;;12.77;;
42704;SDS011;28342;42.594;23.414;2024-03-17T06:07:29;19.08;;;11.88;;
42704;SDS011;28342;42.594;23.414;2024-03-17T06:09:55;21.52;;;12.20;;
42704;SDS011;28342;42.594;23.414;2024-03-17T06:12:21;18.02;;;11.13;;
42704;SDS011;28342;42.594;23.414;2024-03-17T06:14:46;23.13;;;12.00;;
42704;SDS011;28342;42.594;23.414;2024-03-17T06:17:11;17.05;;;11.00;;
42704;SDS011;28342;42.594;23.414;2024-03-17T06:19:37;22.98;;;12.50;;
42704;SDS011;28342;42.594;23.414;2024-03-17T06:22:02;17.58;;;11.90;;
42704;SDS011;28342;42.594;23.414;2024-03-17T06:24:30;24.55;;;12.43;;
42704;SDS011;28342;42.594;23.414;2024-03-17T06:26:55;27.25;;;13.90;;
42704;SDS011;28342;42.594;23.414;2024-03-17T06:29:21;22.15;;;12.20;;
42704;SDS011;28342;42.594;23.414;2024-03-17T06:31:46;22.35;;;12.57;;
42704;SDS011;28342;42.594;23.414;2024-03-17T06:34:12;24.15;;;12.43;;
42704;SDS011;28342;42.594;23.414;2024-03-17T06:36:40;24.52;;;13.07;;
42704;SDS011;28342;42.594;23.414;2024-03-17T06:39:05;20.20;;;11.13;;
42704;SDS011;28342;42.594;23.414;2024-03-17T06:41:30;20.75;;;11.73;;
42704;SDS011;28342;42.594;23.414;2024-03-17T06:43:56;17.45;;;10.65;;
42704;SDS011;28342;42.594;23.414;2024-03-17T06:46:21;24.30;;;12.02;;
42704;SDS011;28342;42.594;23.414;2024-03-17T06:48:47;18.83;;;11.18;;
42704;SDS011;28342;42.594;23.414;2024-03-17T06:51:12;22.77;;;12.32;;
42704;SDS011;28342;42.594;23.414;2024-03-17T06:53:37;22.73;;;11.65;;
42704;SDS011;28342;42.594;23.414;2024-03-17T06:56:03;22.90;;;12.20;;
42704;SDS011;28342;42.594;23.414;2024-03-17T06:58:28;21.95;;;12.25;;
42704;SDS011;28342;42.594;23.414;2024-03-17T07:00:57;19.98;;;11.10;;
42704;SDS011;28342;42.594;23.414;2024-03-17T07:03:30;23.40;;;11.63;;
42704;SDS011;28342;42.594;23.414;2024-03-17T07:05:57;22.67;;;10.98;;
42704;SDS011;28342;42.594;23.414;2024-03-17T07:08:24;16.85;;;10.65;;
42704;SDS011;28342;42.594;23.414;2024-03-17T07:13:30;19.67;;;10.88;;
42704;SDS011;28342;42.594;23.414;2024-03-17T07:16:00;20.45;;;11.57;;
42704;SDS011;28342;42.594;23.414;2024-03-17T07:18:27;23.38;;;13.30;;
42704;SDS011;28342;42.594;23.414;2024-03-17T07:20:53;25.02;;;14.02;;
42704;SDS011;28342;42.594;23.414;2024-03-17T07:23:22;23.95;;;13.40;;
42704;SDS011;28342;42.594;23.414;2024-03-17T07:25:54;21.08;;;12.52;;
42704;SDS011;28342;42.594;23.414;2024-03-17T07:28:24;22.27;;;13.80;;
42704;SDS011;28342;42.594;23.414;2024-03-17T07:30:53;22.95;;;13.50;;
42704;SDS011;28342;42.594;23.414;2024-03-17T07:33:21;20.48;;;13.32;;
42704;SDS011;28342;42.594;23.414;2024-03-17T07:35:51;27.13;;;13.30;;
42704;SDS011;28342;42.594;23.414;2024-03-17T07:40:58;22.58;;;13.10;;
42704;SDS011;28342;42.594;23.414;2024-03-17T07:43:28;25.88;;;12.63;;
42704;SDS011;28342;42.594;23.414;2024-03-17T07:46:08;21.63;;;12.82;;
42704;SDS011;28342;42.594;23.414;2024-03-17T07:48:39;24.27;;;12.48;;
42704;SDS011;28342;42.594;23.414;2024-03-17T07:51:15;23.70;;;14.27;;
42704;SDS011;28342;42.594;23.414;2024-03-17T07:53:45;22.00;;;12.80;;
42704;SDS011;28342;42.594;23.414;2024-03-17T07:56:13;32.00;;;12.50;;
42704;SDS011;28342;42.594;23.414;2024-03-17T07:58:40;26.02;;;13.20;;
42704;SDS011;28342;42.594;23.414;2024-03-17T08:01:07;24.60;;;13.30;;
42704;SDS011;28342;42.594;23.414;2024-03-17T08:03:38;24.17;;;13.93;;
42704;SDS011;28342;42.594;23.414;2024-03-17T08:06:05;26.92;;;14.32;;
42704;SDS011;28342;42.594;23.414;2024-03-17T08:08:32;24.08;;;14.52;;
42704;SDS011;28342;42.594;23.414;2024-03-17T08:10:58;24.38;;;15.77;;
42704;SDS011;28342;42.594;23.414;2024-03-17T08:13:24;21.17;;;14.23;;
42704;SDS011;28342;42.594;23.414;2024-03-17T08:15:57;28.65;;;17.60;;
42704;SDS011;28342;42.594;23.414;2024-03-17T08:18:24;30.25;;;15.18;;
42704;SDS011;28342;42.594;23.414;2024-03-17T08:20:50;33.78;;;16.92;;
42704;SDS011;28342;42.594;23.414;2024-03-17T08:23:15;26.33;;;16.85;;
42704;SDS011;28342;42.594;23.414;2024-03-17T08:25:41;29.90;;;16.88;;
42704;SDS011;28342;42.594;23.414;2024-03-17T08:28:06;27.13;;;16.50;;
42704;SDS011;28342;42.594;23.414;2024-03-17T08:30:32;28.50;;;17.67;;
42704;SDS011;28342;42.594;23.414;2024-03-17T08:32:58;25.33;;;16.20;;
42704;SDS011;28342;42.594;23.414;2024-03-17T08:35:23;32.67;;;16.20;;
42704;SDS011;28342;42.594;23.414;2024-03-17T08:37:49;26.10;;;16.60;;
42704;SDS011;28342;42.594;23.414;2024-03-17T08:40:16;30.63;;;18.63;;
42704;SDS011;28342;42.594;23.414;2024-03-17T08:42:42;39.95;;;18.90;;
42704;SDS011;28342;42.594;23.414;2024-03-17T08:45:07;28.38;;;17.63;;
42704;SDS011;28342;42.594;23.414;2024-03-17T08:47:35;29.52;;;18.98;;
42704;SDS011;28342;42.594;23.414;2024-03-17T08:50:00;33.10;;;16.98;;
42704;SDS011;28342;42.594;23.414;2024-03-17T08:52:29;39.67;;;19.35;;
42704;SDS011;28342;42.594;23.414;2024-03-17T08:54:56;30.52;;;18.13;;
42704;SDS011;28342;42.594;23.414;2024-03-17T08:57:22;29.83;;;18.02;;
42704;SDS011;28342;42.594;23.414;2024-03-17T08:59:47;27.65;;;17.13;;
42704;SDS011;28342;42.594;23.414;2024-03-17T09:02:13;31.27;;;18.60;;
42704;SDS011;28342;42.594;23.414;2024-03-17T09:04:40;29.17;;;18.48;;
42704;SDS011;28342;42.594;23.414;2024-03-17T09:07:06;31.77;;;18.20;;
42704;SDS011;28342;42.594;23.414;2024-03-17T09:09:31;26.55;;;16.20;;
42704;SDS011;28342;42.594;23.414;2024-03-17T09:11:57;34.80;;;17.17;;
42704;SDS011;28342;42.594;23.414;2024-03-17T09:14:22;40.38;;;20.27;;
42704;SDS011;28342;42.594;23.414;2024-03-17T09:16:48;26.05;;;16.27;;
42704;SDS011;28342;42.594;23.414;2024-03-17T09:19:13;22.00;;;14.68;;
42704;SDS011;28342;42.594;23.414;2024-03-17T09:21:40;21.20;;;13.73;;
42704;SDS011;28342;42.594;23.414;2024-03-17T09:24:06;25.05;;;14.82;;
42704;SDS011;28342;42.594;23.414;2024-03-17T09:26:35;24.27;;;14.63;;
42704;SDS011;28342;42.594;23.414;2024-03-17T09:29:01;21.15;;;13.90;;
42704;SDS011;28342;42.594;23.414;2024-03-17T09:31:26;27.98;;;15.23;;
42704;SDS011;28342;42.594;23.414;2024-03-17T09:33:52;24.15;;;13.95;;
42704;SDS011;28342;42.594;23.414;2024-03-17T09:36:17;17.35;;;12.80;;
42704;SDS011;28342;42.594;23.414;2024-03-17T09:38:43;27.67;;;13.77;;
42704;SDS011;28342;42.594;23.414;2024-03-17T09:41:20;24.42;;;14.40;;
42704;SDS011;28342;42.594;23.414;2024-03-17T09:43:50;18.70;;;11.55;;
42704;SDS011;28342;42.594;23.414;2024-03-17T09:46:18;18.48;;;12.05;;
42704;SDS011;28342;42.594;23.414;2024-03-17T09:48:44;22.98;;;11.90;;
42704;SDS011;28342;42.594;23.414;2024-03-17T09:51:14;18.98;;;10.98;;
42704;SDS011;28342;42.594;23.414;2024-03-17T09:53:43;20.23;;;11.70;;
42704;SDS011;28342;42.594;23.414;2024-03-17T09:56:12;20.08;;;12.27;;
42704;SDS011;28342;42.594;23.414;2024-03-17T09:58:41;20.80;;;11.48;;
42704;SDS011;28342;42.594;23.414;2024-03-17T10:01:16;13.88;;;10.55;;
42704;SDS011;28342;42.594;23.414;2024-03-17T10:03:43;15.88;;;10.75;;
42704;SDS011;28342;42.594;23.414;2024-03-17T10:06:21;17.50;;;10.00;;
42704;SDS011;28342;42.594;23.414;2024-03-17T10:08:49;17.73;;;11.55;;
42704;SDS011;28342;42.594;23.414;2024-03-17T10:11:16;19.75;;;11.35;;
42704;SDS011;28342;42.594;23.414;2024-03-17T10:13:44;12.20;;;8.90;;
42704;SDS011;28342;42.594;23.414;2024-03-17T10:16:23;14.65;;;8.80;;
42704;SDS011;28342;42.594;23.414;2024-03-17T10:18:50;10.80;;;7.30;;
42704;SDS011;28342;42.594;23.414;2024-03-17T10:21:26;17.33;;;9.70;;
42704;SDS011;28342;42.594;23.414;2024-03-17T10:24:08;6.88;;;5.50;;
42704;SDS011;28342;42.594;23.414;2024-03-17T10:29:15;13.60;;;8.20;;
42704;SDS011;28342;42.594;23.414;2024-03-17T10:34:17;11.85;;;5.53;;
42704;SDS011;28342;42.594;23.414;2024-03-17T10:36:44;6.85;;;4.80;;
42704;SDS011;28342;42.594;23.414;2024-03-17T10:39:25;11.60;;;5.93;;
42704;SDS011;28342;42.594;23.414;2024-03-17T10:41:59;10.93;;;6.95;;
42704;SDS011;28342;42.594;23.414;2024-03-17T10:46:55;6.10;;;4.78;;
42704;SDS011;28342;42.594;23.414;2024-03-17T10:49:23;7.38;;;4.90;;
42704;SDS011;28342;42.594;23.414;2024-03-17T10:52:03;9.00;;;4.03;;
42704;SDS011;28342;42.594;23.414;2024-03-17T10:54:30;6.72;;;4.95;;
42704;SDS011;28342;42.594;23.414;2024-03-17T10:56:57;9.52;;;4.95;;
42704;SDS011;28342;42.594;23.414;2024-03-17T10:59:45;7.55;;;4.32;;
42704;SDS011;28342;42.594;23.414;2024-03-17T11:02:22;7.10;;;4.97;;
42704;SDS011;28342;42.594;23.414;2024-03-17T11:04:52;6.32;;;4.63;;
42704;SDS011;28342;42.594;23.414;2024-03-17T11:07:19;7.53;;;3.92;;
42704;SDS011;28342;42.594;23.414;2024-03-17T11:09:46;5.15;;;4.05;;
42704;SDS011;28342;42.594;23.414;2024-03-17T11:15:35;6.00;;;4.00;;
42704;SDS011;28342;42.594;23.414;2024-03-17T11:20:36;7.93;;;4.22;;
42704;SDS011;28342;42.594;23.414;2024-03-17T11:23:02;5.35;;;4.22;;
42704;SDS011;28342;42.594;23.414;2024-03-17T11:27:59;9.82;;;4.40;;
42704;SDS011;28342;42.594;23.414;2024-03-17T11:38:55;10.32;;;5.55;;
42704;SDS011;28342;42.594;23.414;2024-03-17T11:47:04;11.43;;;5.75;;
42704;SDS011;28342;42.594;23.414;2024-03-17T11:49:40;9.80;;;6.35;;
42704;SDS011;28342;42.594;23.414;2024-03-17T11:54:35;7.57;;;5.75;;
42704;SDS011;28342;42.594;23.414;2024-03-17T11:57:04;8.88;;;6.75;;
42704;SDS011;28342;42.594;23.414;2024-03-17T11:59:33;11.07;;;5.95;;
42704;SDS011;28342;42.594;23.414;2024-03-17T12:01:59;6.80;;;5.60;;
42704;SDS011;28342;42.594;23.414;2024-03-17T12:04:25;12.82;;;6.40;;
42704;SDS011;28342;42.594;23.414;2024-03-17T12:06:51;13.05;;;6.90;;
42704;SDS011;28342;42.594;23.414;2024-03-17T12:12:01;8.18;;;6.55;;
42704;SDS011;28342;42.594;23.414;2024-03-17T12:14:29;7.53;;;5.82;;
42704;SDS011;28342;42.594;23.414;2024-03-17T12:16:55;10.15;;;6.07;;
42704;SDS011;28342;42.594;23.414;2024-03-17T12:19:22;9.13;;;6.57;;
42704;SDS011;28342;42.594;23.414;2024-03-17T12:21:52;6.82;;;5.70;;
42704;SDS011;28342;42.594;23.414;2024-03-17T12:24:19;9.43;;;5.68;;
42704;SDS011;28342;42.594;23.414;2024-03-17T12:26:49;7.00;;;5.00;;
42704;SDS011;28342;42.594;23.414;2024-03-17T12:29:27;7.05;;;5.28;;
42704;SDS011;28342;42.594;23.414;2024-03-17T12:31:58;13.32;;;6.78;;
42704;SDS011;28342;42.594;23.414;2024-03-17T12:34:27;6.68;;;4.63;;
42704;SDS011;28342;42.594;23.414;2024-03-17T12:36:54;7.88;;;5.38;;
42704;SDS011;28342;42.594;23.414;2024-03-17T12:39:27;9.07;;;5.97;;
42704;SDS011;28342;42.594;23.414;2024-03-17T12:42:28;10.00;;;6.32;;
42704;SDS011;28342;42.594;23.414;2024-03-17T12:47:24;8.00;;;5.68;;
42704;SDS011;28342;42.594;23.414;2024-03-17T12:49:52;14.18;;;8.48;;
42704;SDS011;28342;42.594;23.414;2024-03-17T12:54:58;7.10;;;4.85;;
42704;SDS011;28342;42.594;23.414;2024-03-17T12:57:47;7.93;;;4.68;;
42704;SDS011;28342;42.594;23.414;2024-03-17T13:00:35;10.38;;;6.75;;
42704;SDS011;28342;42.594;23.414;2024-03-17T13:03:01;13.10;;;7.43;;
42704;SDS011;28342;42.594;23.414;2024-03-17T13:05:28;15.50;;;9.60;;
42704;SDS011;28342;42.594;23.414;2024-03-17T13:07:54;17.52;;;10.23;;
42704;SDS011;28342;42.594;23.414;2024-03-17T13:10:23;11.32;;;7.07;;
42704;SDS011;28342;42.594;23.414;2024-03-17T13:12:58;10.60;;;7.32;;
42704;SDS011;28342;42.594;23.414;2024-03-17T13:15:32;26.58;;;12.35;;
42704;SDS011;28342;42.594;23.414;2024-03-17T13:18:00;12.38;;;7.65;;
42704;SDS011;28342;42.594;23.414;2024-03-17T13:20:26;5.60;;;4.78;;
42704;SDS011;28342;42.594;23.414;2024-03-17T13:22:52;9.20;;;6.45;;
42704;SDS011;28342;42.594;23.414;2024-03-17T13:25:18;7.47;;;5.38;;
42704;SDS011;28342;42.594;23.414;2024-03-17T13:27:49;9.48;;;5.43;;
42704;SDS011;28342;42.594;23.414;2024-03-17T13:30:16;8.52;;;5.53;;
42704;SDS011;28342;42.594;23.414;2024-03-17T13:32:43;7.07;;;5.53;;
42704;SDS011;28342;42.594;23.414;2024-03-17T13:35:15;8.05;;;5.10;;
42704;SDS011;28342;42.594;23.414;2024-03-17T13:37:42;8.05;;;6.20;;
42704;SDS011;28342;42.594;23.414;2024-03-17T13:40:11;7.90;;;5.82;;
42704;SDS011;28342;42.594;23.414;2024-03-17T13:42:38;8.60;;;5.47;;
42704;SDS011;28342;42.594;23.414;2024-03-17T13:45:04;12.63;;;7.00;;
42704;SDS011;28342;42.594;23.414;2024-03-17T13:47:31;23.17;;;9.80;;
42704;SDS011;28342;42.594;23.414;2024-03-17T13:49:58;16.15;;;9.07;;
42704;SDS011;28342;42.594;23.414;2024-03-17T13:52:23;19.98;;;11.05;;
42704;SDS011;28342;42.594;23.414;2024-03-17T13:54:49;15.68;;;8.30;;
42704;SDS011;28342;42.594;23.414;2024-03-17T13:57:14;23.48;;;12.32;;
42704;SDS011;28342;42.594;23.414;2024-03-17T13:59:40;21.55;;;9.80;;
42704;SDS011;28342;42.594;23.414;2024-03-17T14:02:07;12.30;;;7.53;;
42704;SDS011;28342;42.594;23.414;2024-03-17T14:04:37;14.98;;;8.77;;
42704;SDS011;28342;42.594;23.414;2024-03-17T14:07:03;19.80;;;11.25;;
42704;SDS011;28342;42.594;23.414;2024-03-17T14:09:29;16.25;;;9.93;;
42704;SDS011;28342;42.594;23.414;2024-03-17T14:11:55;12.40;;;7.78;;
42704;SDS011;28342;42.594;23.414;2024-03-17T14:14:22;13.48;;;8.63;;
42704;SDS011;28342;42.594;23.414;2024-03-17T14:16:48;20.45;;;12.70;;
42704;SDS011;28342;42.594;23.414;2024-03-17T14:19:14;19.77;;;12.02;;
42704;SDS011;28342;42.594;23.414;2024-03-17T14:21:39;27.98;;;14.60;;
42704;SDS011;28342;42.594;23.414;2024-03-17T14:24:05;18.08;;;10.95;;
42704;SDS011;28342;42.594;23.414;2024-03-17T14:26:35;17.83;;;9.93;;
42704;SDS011;28342;42.594;23.414;2024-03-17T14:29:01;17.70;;;10.13;;
42704;SDS011;28342;42.594;23.414;2024-03-17T14:31:30;13.07;;;8.48;;
42704;SDS011;28342;42.594;23.414;2024-03-17T14:33:56;12.18;;;7.88;;
42704;SDS011;28342;42.594;23.414;2024-03-17T14:36:22;16.60;;;9.73;;
42704;SDS011;28342;42.594;23.414;2024-03-17T14:38:53;13.07;;;8.70;;
42704;SDS011;28342;42.594;23.414;2024-03-17T14:41:19;12.70;;;9.20;;
42704;SDS011;28342;42.594;23.414;2024-03-17T14:43:44;13.77;;;9.40;;
42704;SDS011;28342;42.594;23.414;2024-03-17T14:46:11;11.93;;;8.30;;
42704;SDS011;28342;42.594;23.414;2024-03-17T14:48:38;11.40;;;8.20;;
42704;SDS011;28342;42.594;23.414;2024-03-17T14:51:04;15.20;;;9.10;;
42704;SDS011;28342;42.594;23.414;2024-03-17T14:53:30;13.77;;;8.80;;
42704;SDS011;28342;42.594;23.414;2024-03-17T14:55:56;22.90;;;13.55;;
42704;SDS011;28342;42.594;23.414;2024-03-17T14:58:21;20.60;;;13.02;;
42704;SDS011;28342;42.594;23.414;2024-03-17T15:00:46;19.40;;;10.60;;